Terminal Aerodrome Forecast
Issued by NWS Cleveland, OH

Home | Current Version | Previous Version | Graphics & Text | Print | Product List | Glossary On
Versions: 1 2 3 4 5 6 7 8 9 10 11 12 13 14 15 16 17
000
FTUS41 KCLE 310539
TAFERI
TAF
KERI 310539Z 3106/0106 19005KT P6SM VCSH SCT060 BKN100
     FM311400 19005KT P6SM VCSH SCT025 BKN035
      TEMPO 3114/3117 BKN025 OVC035
     FM311700 27008KT P6SM VCTS SCT030CB OVC035
     FM312200 31010KT P6SM OVC035
     FM010200 01015KT P6SM OVC035=

USA.gov is the U.S. government's official web portal to all federal, state and local government web resources and services.